createdAt,value
2022-07-28T00:00:51.645Z,15.26
2022-07-28T00:01:51.669Z,15.21
2022-07-28T00:02:51.540Z,15.08
2022-07-28T00:03:51.412Z,15.13
2022-07-28T00:04:51.339Z,15.13
2022-07-28T00:05:51.260Z,15.16
2022-07-28T00:06:51.179Z,15.16
2022-07-28T00:07:51.103Z,15.16
2022-07-28T00:08:51.031Z,15.20
2022-07-28T00:09:50.949Z,15.15
2022-07-28T00:10:50.874Z,15.27
2022-07-28T00:11:54.540Z,15.12
2022-07-28T00:12:50.722Z,15.12
2022-07-28T00:13:50.643Z,15.03
2022-07-28T00:14:50.563Z,15.08
2022-07-28T00:15:50.540Z,15.13
2022-07-28T00:16:50.446Z,15.09
2022-07-28T00:17:50.334Z,15.01
2022-07-28T00:18:50.260Z,15.01
2022-07-28T00:19:50.192Z,15.01
2022-07-28T00:20:50.107Z,15.06
2022-07-28T00:21:50.039Z,15.08
2022-07-28T00:22:49.948Z,15.18
2022-07-28T00:23:49.876Z,15.16
2022-07-28T00:24:49.794Z,15.15
2022-07-28T00:25:49.720Z,15.20
2022-07-28T00:26:49.639Z,15.12
2022-07-28T00:27:49.568Z,15.12
2022-07-28T00:28:49.489Z,14.90
2022-07-28T00:29:51.058Z,14.75
2022-07-28T00:30:49.333Z,14.61
2022-07-28T00:31:49.327Z,14.57
2022-07-28T00:32:49.177Z,14.57
2022-07-28T00:33:49.146Z,14.59
2022-07-28T00:34:49.024Z,14.64
2022-07-28T00:35:48.946Z,14.67
2022-07-28T00:36:48.875Z,14.79
2022-07-28T00:37:49.139Z,14.72
2022-07-28T00:38:48.968Z,14.79
2022-07-28T00:39:48.638Z,14.80
2022-07-28T00:40:48.567Z,14.79
2022-07-28T00:41:48.489Z,14.88
2022-07-28T00:42:48.409Z,14.85
2022-07-28T00:43:48.331Z,14.87
2022-07-28T00:44:48.256Z,14.84
2022-07-28T00:45:48.175Z,14.85
2022-07-28T00:46:48.192Z,14.91
2022-07-28T00:47:48.025Z,14.90
2022-07-28T00:48:47.969Z,14.90
2022-07-28T00:49:47.872Z,14.87
2022-07-28T00:50:47.792Z,15.01
2022-07-28T00:51:47.715Z,14.94
2022-07-28T00:52:47.643Z,14.83
2022-07-28T00:53:47.562Z,14.69
2022-07-28T00:54:47.486Z,14.61
2022-07-28T00:56:05.300Z,14.54
2022-07-28T00:56:47.336Z,14.46
2022-07-28T00:57:47.252Z,14.42
2022-07-28T00:58:47.171Z,14.39
2022-07-28T00:59:47.097Z,14.49
2022-07-28T01:00:47.019Z,14.53
2022-07-28T01:01:47.045Z,14.56
2022-07-28T01:02:46.973Z,14.60
2022-07-28T01:03:46.792Z,14.56
2022-07-28T01:04:46.713Z,14.64
2022-07-28T01:05:46.633Z,14.59
2022-07-28T01:06:46.558Z,14.57
2022-07-28T01:07:46.477Z,14.56
2022-07-28T01:08:46.398Z,14.61
2022-07-28T01:09:46.326Z,14.61
2022-07-28T01:10:46.253Z,14.52
2022-07-28T01:11:46.170Z,14.50
2022-07-28T01:12:46.090Z,14.44
2022-07-28T01:13:46.022Z,14.41
2022-07-28T01:14:45.938Z,14.35
2022-07-28T01:15:45.917Z,14.38
2022-07-28T01:16:45.785Z,14.24
2022-07-28T01:17:45.703Z,14.20
2022-07-28T01:18:45.628Z,14.32
2022-07-28T01:19:45.551Z,14.38
2022-07-28T01:20:45.477Z,14.17
2022-07-28T01:21:45.396Z,14.17
2022-07-28T01:22:45.317Z,14.11
2022-07-28T01:23:45.242Z,14.01
2022-07-28T01:24:45.164Z,14.03
2022-07-28T01:25:48.447Z,14.03
2022-07-28T01:26:45.012Z,14.02
2022-07-28T01:27:44.930Z,14.05
2022-07-28T01:28:44.855Z,14.03
2022-07-28T01:29:44.777Z,13.92
2022-07-28T01:30:44.741Z,13.84
2022-07-28T01:31:44.716Z,13.92
2022-07-28T01:32:44.544Z,13.81
2022-07-28T01:33:44.467Z,13.87
2022-07-28T01:34:44.391Z,13.99
2022-07-28T01:35:44.313Z,13.95
2022-07-28T01:36:44.234Z,14.03
2022-07-28T01:37:44.159Z,14.10
2022-07-28T01:38:44.078Z,14.14
2022-07-28T01:39:44.005Z,14.14
2022-07-28T01:40:43.921Z,14.24
2022-07-28T01:41:43.853Z,14.21
2022-07-28T01:42:43.769Z,14.32
2022-07-28T01:43:43.695Z,14.36
2022-07-28T01:44:43.614Z,14.35
2022-07-28T01:45:43.536Z,14.44
2022-07-28T01:46:43.513Z,14.41
2022-07-28T01:47:43.382Z,14.47
2022-07-28T01:48:43.381Z,14.47
2022-07-28T01:49:43.225Z,14.50
2022-07-28T01:50:43.148Z,14.50
2022-07-28T01:51:43.072Z,14.49
2022-07-28T01:52:42.994Z,14.56
2022-07-28T01:53:42.917Z,14.61
2022-07-28T01:54:42.837Z,14.67
2022-07-28T01:55:42.766Z,14.67
2022-07-28T01:56:42.686Z,14.60
2022-07-28T01:57:42.609Z,14.74
2022-07-28T01:58:42.527Z,14.64
2022-07-28T01:59:42.452Z,14.72
2022-07-28T02:00:42.374Z,14.61
2022-07-28T02:01:42.412Z,14.88
2022-07-28T02:02:42.223Z,14.83
2022-07-28T02:03:42.156Z,14.80
2022-07-28T02:04:42.113Z,14.83
2022-07-28T02:05:41.989Z,14.78
2022-07-28T02:06:41.910Z,14.80
2022-07-28T02:07:41.834Z,14.87
2022-07-28T02:08:41.753Z,14.83
2022-07-28T02:09:41.678Z,14.83
2022-07-28T02:10:41.597Z,14.85
2022-07-28T02:11:41.521Z,14.87
2022-07-28T02:12:41.451Z,14.83
2022-07-28T02:13:41.370Z,14.85
2022-07-28T02:14:41.286Z,14.91
2022-07-28T02:15:41.305Z,14.94
2022-07-28T02:16:41.134Z,14.88
2022-07-28T02:17:41.060Z,14.90
2022-07-28T02:18:40.981Z,14.90
2022-07-28T02:19:40.905Z,14.90
2022-07-28T02:20:40.821Z,14.84
2022-07-28T02:21:40.747Z,14.72
2022-07-28T02:22:40.672Z,14.60
2022-07-28T02:23:40.590Z,14.61
2022-07-28T02:24:40.512Z,14.59
2022-07-28T02:25:40.437Z,14.57
2022-07-28T02:26:40.364Z,14.60
2022-07-28T02:27:40.286Z,14.60
2022-07-28T02:28:40.207Z,14.57
2022-07-28T02:29:50.729Z,14.57
2022-07-28T02:30:40.087Z,14.57
2022-07-28T02:31:41.980Z,14.60
2022-07-28T02:32:40.888Z,14.49
2022-07-28T02:34:00.314Z,14.44
2022-07-28T02:34:39.739Z,14.39
2022-07-28T02:35:39.663Z,14.34
2022-07-28T02:36:41.479Z,14.47
2022-07-28T02:37:39.505Z,14.42
2022-07-28T02:38:39.427Z,14.42
2022-07-28T02:39:39.354Z,14.39
2022-07-28T02:40:39.277Z,14.32
2022-07-28T02:41:39.207Z,14.35
2022-07-28T02:42:39.119Z,14.41
2022-07-28T02:43:49.028Z,14.38
2022-07-28T02:44:38.965Z,14.35
2022-07-28T02:45:38.887Z,14.39
2022-07-28T02:46:38.850Z,14.35
2022-07-28T02:47:38.738Z,14.41
2022-07-28T02:48:38.708Z,14.38
2022-07-28T02:49:38.575Z,14.42
2022-07-28T02:50:38.496Z,14.24
2022-07-28T02:51:38.429Z,14.27
2022-07-28T02:52:38.346Z,14.13
2022-07-28T02:53:38.265Z,14.24
2022-07-28T02:54:38.189Z,14.14
2022-07-28T02:55:38.113Z,14.14
2022-07-28T02:56:38.033Z,14.13
2022-07-28T02:57:37.964Z,14.24
2022-07-28T02:58:37.892Z,14.29
2022-07-28T02:59:37.802Z,14.31
2022-07-28T03:00:37.723Z,14.28
2022-07-28T03:01:37.716Z,14.27
2022-07-28T03:02:37.570Z,14.17
2022-07-28T03:03:41.298Z,14.16
2022-07-28T03:04:37.476Z,14.11
2022-07-28T03:05:37.382Z,14.09
2022-07-28T03:06:37.256Z,14.13
2022-07-28T03:07:37.184Z,14.01
2022-07-28T03:08:37.107Z,14.21
2022-07-28T03:09:37.025Z,14.17
2022-07-28T03:10:36.949Z,14.17
2022-07-28T03:11:36.874Z,14.27
2022-07-28T03:12:36.802Z,14.28
2022-07-28T03:13:36.716Z,14.24
2022-07-28T03:14:36.642Z,14.23
2022-07-28T03:15:36.564Z,14.31
2022-07-28T03:16:36.510Z,14.24
2022-07-28T03:17:36.406Z,14.23
2022-07-28T03:18:36.328Z,14.21
2022-07-28T03:19:36.252Z,14.27
2022-07-28T03:20:36.169Z,14.31
2022-07-28T03:21:36.092Z,14.34
2022-07-28T03:22:36.015Z,14.27
2022-07-28T03:23:35.968Z,14.14
2022-07-28T03:24:35.861Z,14.17
2022-07-28T03:25:35.784Z,14.07
2022-07-28T03:26:35.707Z,14.05
2022-07-28T03:27:35.630Z,14.01
2022-07-28T03:28:35.561Z,14.19
2022-07-28T03:29:35.479Z,14.13
2022-07-28T03:30:35.445Z,14.28
2022-07-28T03:31:35.317Z,14.24
2022-07-28T03:32:35.245Z,14.24
2022-07-28T03:33:35.163Z,14.24
2022-07-28T03:34:35.082Z,14.38
2022-07-28T03:35:35.008Z,14.23
2022-07-28T03:36:34.931Z,14.20
2022-07-28T03:37:34.855Z,14.11
2022-07-28T03:38:34.774Z,14.09
2022-07-28T03:39:34.694Z,14.21
2022-07-28T03:40:34.617Z,14.19
2022-07-28T03:41:34.542Z,14.09
2022-07-28T03:42:34.461Z,14.13
2022-07-28T03:43:34.384Z,14.05
2022-07-28T03:44:34.307Z,14.11
2022-07-28T03:45:34.257Z,14.17
2022-07-28T03:46:34.185Z,14.05
2022-07-28T03:47:34.078Z,14.07
2022-07-28T03:48:34.040Z,13.99
2022-07-28T03:49:33.916Z,13.95
2022-07-28T03:50:33.844Z,13.95
2022-07-28T03:51:33.762Z,13.91
2022-07-28T03:52:33.690Z,14.03
2022-07-28T03:53:33.607Z,14.02
2022-07-28T03:54:33.529Z,14.07
2022-07-28T03:55:33.450Z,14.03
2022-07-28T03:56:33.381Z,13.94
2022-07-28T03:57:33.297Z,13.89
2022-07-28T03:58:33.222Z,13.95
2022-07-28T03:59:33.142Z,13.92
2022-07-28T04:00:33.064Z,13.87
2022-07-28T04:01:33.088Z,13.95
2022-07-28T04:02:32.967Z,13.96
2022-07-28T04:03:43.228Z,13.92
2022-07-28T04:04:32.752Z,13.92
2022-07-28T04:05:32.677Z,13.96
2022-07-28T04:06:32.594Z,13.98
2022-07-28T04:07:32.519Z,14.09
2022-07-28T04:08:32.443Z,14.03
2022-07-28T04:09:32.364Z,14.05
2022-07-28T04:10:32.284Z,14.03
2022-07-28T04:11:32.209Z,13.83
2022-07-28T04:12:32.132Z,13.68
2022-07-28T04:13:32.141Z,13.58
2022-07-28T04:14:31.976Z,13.53
2022-07-28T04:15:31.898Z,13.52
2022-07-28T04:16:31.860Z,13.45
2022-07-28T04:17:31.740Z,13.63
2022-07-28T04:18:31.671Z,13.74
2022-07-28T04:19:31.584Z,13.66
2022-07-28T04:20:31.506Z,13.73
2022-07-28T04:21:31.437Z,13.74
2022-07-28T04:22:31.348Z,13.87
2022-07-28T04:23:31.281Z,13.81
2022-07-28T04:24:31.196Z,13.89
2022-07-28T04:25:31.120Z,13.86
2022-07-28T04:26:31.038Z,13.86
2022-07-28T04:27:30.965Z,13.84
2022-07-28T04:28:30.882Z,13.81
2022-07-28T04:29:30.805Z,13.68
2022-07-28T04:30:30.777Z,13.76
2022-07-28T04:31:30.724Z,13.77
2022-07-28T04:32:30.572Z,13.78
2022-07-28T04:33:30.499Z,13.83
2022-07-28T04:34:30.416Z,13.80
2022-07-28T04:35:30.345Z,13.81
2022-07-28T04:36:30.259Z,13.86
2022-07-28T04:37:32.560Z,13.78
2022-07-28T04:38:30.110Z,13.86
2022-07-28T04:39:30.031Z,13.77
2022-07-28T04:40:29.951Z,13.74
2022-07-28T04:41:29.875Z,13.86
2022-07-28T04:42:29.794Z,13.83
2022-07-28T04:43:29.714Z,13.87
2022-07-28T04:44:29.639Z,13.94
2022-07-28T04:45:29.565Z,13.92
2022-07-28T04:46:29.546Z,13.94
2022-07-28T04:47:29.405Z,13.89
2022-07-28T04:48:29.327Z,13.92
2022-07-28T04:49:29.252Z,13.87
2022-07-28T04:50:29.167Z,13.95
2022-07-28T04:51:29.096Z,13.94
2022-07-28T04:52:29.018Z,13.95
2022-07-28T04:53:28.935Z,14.02
2022-07-28T04:54:28.856Z,14.05
2022-07-28T04:55:28.781Z,14.02
2022-07-28T04:56:28.705Z,14.09
2022-07-28T04:57:28.627Z,14.16
2022-07-28T04:58:31.024Z,14.29
2022-07-28T04:59:28.471Z,14.29
2022-07-28T05:00:28.391Z,14.24
2022-07-28T05:01:28.384Z,14.39
2022-07-28T05:02:28.239Z,14.36
2022-07-28T05:03:30.493Z,14.32
2022-07-28T05:04:28.128Z,14.32
2022-07-28T05:05:28.005Z,14.49
2022-07-28T05:06:27.927Z,14.50
2022-07-28T05:07:27.848Z,14.56
2022-07-28T05:08:27.773Z,14.57
2022-07-28T05:09:27.690Z,14.61
2022-07-28T05:10:27.615Z,14.60
2022-07-28T05:11:27.537Z,14.67
2022-07-28T05:12:27.465Z,14.68
2022-07-28T05:13:33.395Z,14.75
2022-07-28T05:14:27.304Z,14.84
2022-07-28T05:15:27.229Z,14.80
2022-07-28T05:16:27.198Z,14.91
2022-07-28T05:17:27.070Z,14.85
2022-07-28T05:18:26.990Z,14.88
2022-07-28T05:19:26.915Z,14.88
2022-07-28T05:20:26.841Z,14.87
2022-07-28T05:21:26.760Z,14.95
2022-07-28T05:22:26.681Z,14.93
2022-07-28T05:23:26.606Z,14.95
2022-07-28T05:24:26.524Z,15.03
2022-07-28T05:25:26.449Z,15.03
2022-07-28T05:26:26.368Z,15.02
2022-07-28T05:27:26.297Z,14.97
2022-07-28T05:28:26.216Z,15.12
2022-07-28T05:29:26.137Z,15.12
2022-07-28T05:30:26.055Z,15.15
2022-07-28T05:31:26.019Z,15.23
2022-07-28T05:32:25.940Z,15.30
2022-07-28T05:33:31.958Z,15.28
2022-07-28T05:34:25.756Z,15.30
2022-07-28T05:35:25.671Z,15.39
2022-07-28T05:36:25.595Z,15.34
2022-07-28T05:37:25.514Z,15.35
2022-07-28T05:38:25.445Z,15.49
2022-07-28T05:39:25.361Z,15.52
2022-07-28T05:40:25.282Z,15.57
2022-07-28T05:41:25.209Z,15.52
2022-07-28T05:42:25.133Z,15.57
2022-07-28T05:43:25.054Z,15.61
2022-07-28T05:44:24.980Z,15.53
2022-07-28T05:45:24.953Z,15.63
2022-07-28T05:46:24.876Z,15.67
2022-07-28T05:47:24.741Z,15.79
2022-07-28T05:48:24.665Z,15.81
2022-07-28T05:49:24.678Z,15.88
2022-07-28T05:50:24.508Z,15.92
2022-07-28T05:51:24.434Z,15.94
2022-07-28T05:52:24.358Z,16.07
2022-07-28T05:53:24.284Z,16.10
2022-07-28T05:54:24.204Z,16.23
2022-07-28T05:55:24.124Z,16.20
2022-07-28T05:56:24.048Z,16.34
2022-07-28T05:57:23.976Z,16.41
2022-07-28T05:58:23.890Z,16.37
2022-07-28T05:59:23.813Z,16.55
2022-07-28T06:00:23.736Z,16.63
2022-07-28T06:01:23.733Z,16.66
2022-07-28T06:02:23.636Z,16.81
2022-07-28T06:03:23.507Z,16.82
2022-07-28T06:04:27.297Z,16.88
2022-07-28T06:05:23.354Z,16.95
2022-07-28T06:06:23.274Z,16.98
2022-07-28T06:07:23.201Z,17.08
2022-07-28T06:08:23.118Z,17.18
2022-07-28T06:09:23.044Z,17.20
2022-07-28T06:10:22.967Z,17.20
2022-07-28T06:11:23.212Z,17.33
2022-07-28T06:12:22.814Z,17.32
2022-07-28T06:13:22.736Z,17.39
2022-07-28T06:14:22.659Z,17.53
2022-07-28T06:15:22.588Z,17.58
2022-07-28T06:16:22.641Z,17.57
2022-07-28T06:17:22.428Z,17.71
2022-07-28T06:18:22.357Z,17.60
2022-07-28T06:19:22.274Z,17.64
2022-07-28T06:20:22.204Z,17.70
2022-07-28T06:21:22.118Z,17.77
2022-07-28T06:22:22.048Z,17.88
2022-07-28T06:23:21.969Z,17.89
2022-07-28T06:24:21.897Z,17.94
2022-07-28T06:25:21.815Z,17.95
2022-07-28T06:26:23.577Z,18.09
2022-07-28T06:27:21.659Z,18.19
2022-07-28T06:28:21.586Z,18.06
2022-07-28T06:29:21.507Z,18.22
2022-07-28T06:30:21.438Z,18.06
2022-07-28T06:31:21.421Z,18.10
2022-07-28T06:32:21.279Z,18.19
2022-07-28T06:33:21.264Z,18.18
2022-07-28T06:34:21.139Z,18.19
2022-07-28T06:35:21.047Z,18.18
2022-07-28T06:36:20.974Z,18.21
2022-07-28T06:37:20.897Z,18.22
2022-07-28T06:38:20.818Z,18.22
2022-07-28T06:39:20.745Z,18.35
2022-07-28T06:40:20.670Z,18.35
2022-07-28T06:41:20.593Z,18.40
2022-07-28T06:42:20.510Z,18.39
2022-07-28T06:43:20.438Z,18.43
2022-07-28T06:44:20.667Z,18.55
2022-07-28T06:45:21.245Z,18.55
2022-07-28T06:46:20.320Z,18.59
2022-07-28T06:47:20.206Z,18.65
2022-07-28T06:48:20.054Z,18.69
2022-07-28T06:49:20.216Z,18.69
2022-07-28T06:50:26.223Z,18.80
2022-07-28T06:51:19.896Z,18.74
2022-07-28T06:52:19.748Z,18.82
2022-07-28T06:53:19.675Z,18.90
2022-07-28T06:54:19.831Z,18.98
2022-07-28T06:55:19.520Z,19.05
2022-07-28T06:56:19.444Z,19.08
2022-07-28T06:57:19.366Z,19.13
2022-07-28T06:58:19.290Z,19.14
2022-07-28T06:59:19.251Z,19.24
2022-07-28T07:00:19.153Z,19.25
2022-07-28T07:01:19.101Z,19.32
2022-07-28T07:02:18.986Z,19.31
2022-07-28T07:03:18.912Z,19.38
2022-07-28T07:04:19.327Z,19.46
2022-07-28T07:05:18.760Z,19.45
2022-07-28T07:06:18.684Z,19.63
2022-07-28T07:07:18.613Z,19.71
2022-07-28T07:08:18.530Z,19.79
2022-07-28T07:09:18.458Z,19.73
2022-07-28T07:10:18.380Z,19.86
2022-07-28T07:11:18.318Z,19.97
2022-07-28T07:12:18.227Z,20.01
2022-07-28T07:13:18.159Z,20.15
2022-07-28T07:14:18.755Z,20.23
2022-07-28T07:15:18.002Z,20.23
2022-07-28T07:16:17.986Z,20.26
2022-07-28T07:17:17.856Z,20.20
2022-07-28T07:18:17.770Z,20.23
2022-07-28T07:19:17.700Z,20.33
2022-07-28T07:20:18.374Z,20.28
2022-07-28T07:21:17.550Z,20.40
2022-07-28T07:22:17.468Z,20.54
2022-07-28T07:23:17.397Z,20.59
2022-07-28T07:24:17.758Z,20.65
2022-07-28T07:25:17.251Z,20.65
2022-07-28T07:26:17.176Z,20.76
2022-07-28T07:27:17.099Z,20.93
2022-07-28T07:28:17.019Z,20.93
2022-07-28T07:29:16.948Z,21.09
2022-07-28T07:30:16.874Z,21.11
2022-07-28T07:31:16.843Z,21.14
2022-07-28T07:32:16.717Z,21.20
2022-07-28T07:33:16.643Z,21.30
2022-07-28T07:34:17.100Z,21.31
2022-07-28T07:35:16.494Z,21.36
2022-07-28T07:36:16.419Z,21.46
2022-07-28T07:37:16.342Z,21.45
2022-07-28T07:38:16.269Z,21.56
2022-07-28T07:39:16.195Z,21.66
2022-07-28T07:40:16.117Z,21.72
2022-07-28T07:41:16.043Z,21.91
2022-07-28T07:42:15.970Z,22.02
2022-07-28T07:43:15.896Z,22.07
2022-07-28T07:44:16.162Z,22.19
2022-07-28T07:45:15.750Z,22.30
2022-07-28T07:46:15.718Z,22.42
2022-07-28T07:47:15.594Z,22.46
2022-07-28T07:48:15.523Z,22.42
2022-07-28T07:49:15.478Z,22.53
2022-07-28T07:50:15.378Z,22.54
2022-07-28T07:51:15.862Z,22.72
2022-07-28T07:52:15.226Z,22.81
2022-07-28T07:53:15.152Z,22.75
2022-07-28T07:54:15.373Z,22.77
2022-07-28T07:55:15.005Z,22.89
2022-07-28T07:56:14.928Z,22.97
2022-07-28T07:57:14.854Z,23.15
2022-07-28T07:58:14.779Z,23.18
2022-07-28T07:59:14.710Z,23.35
2022-07-28T08:00:29.032Z,23.34
2022-07-28T08:01:14.583Z,23.50
2022-07-28T08:02:14.542Z,23.56
2022-07-28T08:03:14.412Z,23.61
2022-07-28T08:04:14.825Z,23.63
2022-07-28T08:05:14.263Z,23.65
2022-07-28T08:06:14.191Z,23.67
2022-07-28T08:07:14.119Z,23.64
2022-07-28T08:08:14.044Z,23.70
2022-07-28T08:09:13.969Z,23.65
2022-07-28T08:10:13.900Z,23.61
2022-07-28T08:11:13.823Z,23.65
2022-07-28T08:12:13.756Z,23.60
2022-07-28T08:13:13.676Z,23.64
2022-07-28T08:14:13.914Z,23.61
2022-07-28T08:15:13.531Z,23.63
2022-07-28T08:16:13.520Z,23.70
2022-07-28T08:17:13.390Z,23.63
2022-07-28T08:18:13.313Z,23.78
2022-07-28T08:19:13.243Z,23.80
2022-07-28T08:20:13.174Z,24.07
2022-07-28T08:21:13.161Z,24.20
2022-07-28T08:22:13.023Z,24.25
2022-07-28T08:23:12.949Z,24.32
2022-07-28T08:24:13.104Z,24.41
2022-07-28T08:25:12.814Z,24.53
2022-07-28T08:26:12.733Z,24.63
2022-07-28T08:27:12.662Z,24.73
2022-07-28T08:28:12.585Z,24.83
2022-07-28T08:29:12.513Z,24.93
2022-07-28T08:30:12.446Z,24.97
2022-07-28T08:31:12.404Z,25.08
2022-07-28T08:32:12.296Z,25.08
2022-07-28T08:33:12.229Z,25.12
2022-07-28T08:34:31.337Z,25.17
2022-07-28T08:35:32.428Z,25.13
2022-07-28T08:36:12.011Z,25.10
2022-07-28T08:37:11.936Z,25.05
2022-07-28T08:38:11.865Z,25.01
2022-07-28T08:39:11.798Z,24.95
2022-07-28T08:40:11.721Z,24.91
2022-07-28T08:41:11.650Z,24.91
2022-07-28T08:42:11.581Z,24.90
2022-07-28T08:43:11.513Z,25.01
2022-07-28T08:44:11.546Z,25.10
2022-07-28T08:45:11.365Z,25.13
2022-07-28T08:46:11.353Z,25.19
2022-07-28T08:47:11.221Z,25.20
2022-07-28T08:48:11.148Z,25.20
2022-07-28T08:49:11.189Z,25.13
2022-07-28T08:50:11.011Z,25.27
2022-07-28T08:51:10.937Z,25.40
2022-07-28T08:52:10.864Z,25.56
2022-07-28T08:53:10.794Z,25.55
2022-07-28T08:54:10.865Z,25.75
2022-07-28T08:55:10.662Z,25.82
2022-07-28T08:56:10.580Z,25.86
2022-07-28T08:57:10.512Z,25.94
2022-07-28T08:58:10.436Z,26.02
2022-07-28T08:59:10.366Z,26.20
2022-07-28T09:00:10.293Z,26.20
2022-07-28T09:01:10.221Z,26.21
2022-07-28T09:02:10.188Z,26.23
2022-07-28T09:03:10.137Z,26.31
2022-07-28T09:04:10.012Z,26.27
2022-07-28T09:05:09.940Z,26.05
2022-07-28T09:06:09.873Z,25.92
2022-07-28T09:07:09.804Z,25.79
2022-07-28T09:08:09.727Z,25.68
2022-07-28T09:09:09.656Z,25.77
2022-07-28T09:10:09.591Z,25.87
2022-07-28T09:11:09.517Z,26.16
2022-07-28T09:12:09.447Z,26.34
2022-07-28T09:13:09.376Z,26.55
2022-07-28T09:14:09.304Z,26.72
2022-07-28T09:15:09.236Z,26.76
2022-07-28T09:16:09.212Z,26.83
2022-07-28T09:17:09.094Z,26.82
2022-07-28T09:18:09.021Z,26.84
2022-07-28T09:19:08.961Z,26.69
2022-07-28T09:20:11.131Z,26.39
2022-07-28T09:21:08.815Z,26.20
2022-07-28T09:22:08.744Z,26.15
2022-07-28T09:23:43.401Z,26.15
2022-07-28T09:24:08.607Z,26.11
2022-07-28T09:25:08.531Z,26.02
2022-07-28T09:26:12.576Z,26.20
2022-07-28T09:27:08.391Z,26.23
2022-07-28T09:28:08.329Z,26.39
2022-07-28T09:29:08.254Z,26.40
2022-07-28T09:30:08.183Z,26.50
2022-07-28T09:31:08.126Z,26.64
2022-07-28T09:32:08.094Z,26.62
2022-07-28T09:33:07.976Z,26.82
2022-07-28T09:34:07.905Z,26.84
2022-07-28T09:35:07.835Z,26.94
2022-07-28T09:36:07.764Z,27.16
2022-07-28T09:37:07.702Z,27.09
2022-07-28T09:38:07.628Z,27.21
2022-07-28T09:39:07.555Z,27.08
2022-07-28T09:40:07.484Z,27.09
2022-07-28T09:41:07.411Z,27.26
2022-07-28T09:42:07.349Z,27.16
2022-07-28T09:43:07.276Z,27.08
2022-07-28T09:44:07.208Z,27.14
2022-07-28T09:45:22.352Z,27.17
2022-07-28T09:46:07.205Z,27.02
2022-07-28T09:47:07.206Z,26.84
2022-07-28T09:48:07.146Z,26.80
2022-07-28T09:49:06.993Z,26.87
2022-07-28T09:50:06.896Z,26.86
2022-07-28T09:51:06.719Z,26.86
2022-07-28T09:52:06.654Z,26.92
2022-07-28T09:53:06.583Z,26.84
2022-07-28T09:54:06.513Z,26.99
2022-07-28T09:55:06.447Z,26.87
2022-07-28T09:56:06.376Z,26.79
2022-07-28T09:57:06.302Z,26.83
2022-07-28T09:58:06.235Z,26.99
2022-07-28T09:59:06.870Z,27.16
2022-07-28T10:00:06.098Z,27.17
2022-07-28T10:01:06.098Z,27.26
2022-07-28T10:02:06.053Z,27.34
2022-07-28T10:03:05.930Z,27.41
2022-07-28T10:04:05.822Z,27.17
2022-07-28T10:05:05.754Z,27.17
2022-07-28T10:06:05.688Z,27.13
2022-07-28T10:07:05.633Z,27.14
2022-07-28T10:08:05.551Z,27.08
2022-07-28T10:09:05.481Z,27.14
2022-07-28T10:10:05.409Z,27.13
2022-07-28T10:11:05.336Z,27.23
2022-07-28T10:12:05.270Z,27.38
2022-07-28T10:13:05.201Z,27.62
2022-07-28T10:14:05.130Z,27.84
2022-07-28T10:15:05.064Z,27.87
2022-07-28T10:16:05.030Z,27.98
2022-07-28T10:17:06.295Z,28.01
2022-07-28T10:18:04.862Z,28.26
2022-07-28T10:19:04.793Z,28.44
2022-07-28T10:20:04.721Z,28.31
2022-07-28T10:21:04.651Z,28.34
2022-07-28T10:22:04.588Z,28.44
2022-07-28T10:23:04.513Z,28.46
2022-07-28T10:24:04.449Z,28.57
2022-07-28T10:25:04.397Z,28.57
2022-07-28T10:26:04.313Z,28.61
2022-07-28T10:27:04.246Z,28.54
2022-07-28T10:28:04.176Z,28.49
2022-07-28T10:29:04.108Z,28.46
2022-07-28T10:30:04.038Z,28.47
2022-07-28T10:31:04.045Z,28.47
2022-07-28T10:32:03.911Z,28.39
2022-07-28T10:33:03.834Z,28.44
2022-07-28T10:34:03.770Z,28.38
2022-07-28T10:35:03.701Z,28.34
2022-07-28T10:36:03.644Z,28.47
2022-07-28T10:37:03.559Z,28.50
2022-07-28T10:38:03.502Z,28.57
2022-07-28T10:39:03.428Z,28.83
2022-07-28T10:40:09.412Z,29.04
2022-07-28T10:41:03.287Z,29.07
2022-07-28T10:42:03.222Z,28.94
2022-07-28T10:43:03.165Z,28.71
2022-07-28T10:44:03.088Z,28.69
2022-07-28T10:45:03.019Z,28.93
2022-07-28T10:46:06.196Z,28.51
2022-07-28T10:47:02.912Z,28.44
2022-07-28T10:48:02.818Z,28.24
2022-07-28T10:49:03.680Z,28.17
2022-07-28T10:50:02.686Z,27.97
2022-07-28T10:51:02.612Z,27.94
2022-07-28T10:52:08.725Z,27.88
2022-07-28T10:53:02.479Z,27.88
2022-07-28T10:54:02.415Z,27.98
2022-07-28T10:55:02.342Z,28.11
2022-07-28T10:56:02.272Z,28.35
2022-07-28T10:57:04.900Z,28.57
2022-07-28T10:58:11.649Z,28.83
2022-07-28T10:59:04.903Z,29.01
2022-07-28T11:00:12.321Z,29.28
2022-07-28T11:01:05.942Z,29.44
2022-07-28T11:02:01.930Z,29.40
2022-07-28T11:03:01.939Z,29.25
2022-07-28T11:04:01.809Z,29.16
2022-07-28T11:05:01.666Z,28.96
2022-07-28T11:06:01.600Z,28.84
2022-07-28T11:07:01.527Z,28.90
2022-07-28T11:08:01.472Z,29.07
2022-07-28T11:09:01.400Z,29.13
2022-07-28T11:10:01.326Z,29.14
2022-07-28T11:11:07.723Z,29.00
2022-07-28T11:12:01.195Z,29.04
2022-07-28T11:13:01.124Z,28.88
2022-07-28T11:14:01.073Z,28.90
2022-07-28T11:15:18.265Z,28.96
2022-07-28T11:16:00.924Z,29.11
2022-07-28T11:17:00.971Z,29.34
2022-07-28T11:18:00.796Z,29.34
2022-07-28T11:19:00.719Z,29.23
2022-07-28T11:20:16.821Z,29.41
2022-07-28T11:21:00.765Z,29.48
2022-07-28T11:22:00.519Z,29.59
2022-07-28T11:23:00.454Z,29.68
2022-07-28T11:24:00.387Z,29.48
2022-07-28T11:25:00.319Z,29.29
2022-07-28T11:26:00.255Z,28.87
2022-07-28T11:27:04.045Z,28.62
2022-07-28T11:28:00.117Z,28.44
2022-07-28T11:29:00.058Z,28.38
2022-07-28T11:29:59.986Z,28.20
2022-07-28T11:30:59.979Z,28.14
2022-07-28T11:31:59.851Z,28.25
2022-07-28T11:32:59.794Z,28.22
2022-07-28T11:33:59.721Z,28.41
2022-07-28T11:34:59.649Z,28.47
2022-07-28T11:35:59.602Z,28.46
2022-07-28T11:36:59.516Z,28.56
2022-07-28T11:37:59.449Z,28.63
2022-07-28T11:38:59.379Z,28.63
2022-07-28T11:39:59.313Z,28.51
2022-07-28T11:40:59.254Z,28.53
2022-07-28T11:41:59.193Z,28.69
2022-07-28T11:42:59.111Z,28.75
2022-07-28T11:43:59.058Z,28.81
2022-07-28T11:44:58.987Z,28.96
2022-07-28T11:45:58.988Z,28.93
2022-07-28T11:46:58.847Z,28.87
2022-07-28T11:47:58.787Z,28.73
2022-07-28T11:48:58.768Z,28.69
2022-07-28T11:49:58.642Z,28.69
2022-07-28T11:50:58.576Z,28.68
2022-07-28T11:51:58.509Z,28.71
2022-07-28T11:52:58.442Z,28.78
2022-07-28T11:53:58.372Z,28.87
2022-07-28T11:54:58.324Z,28.90
2022-07-28T11:56:02.942Z,29.18
2022-07-28T11:56:58.175Z,29.46
2022-07-28T11:57:58.105Z,29.62
2022-07-28T11:58:58.040Z,29.81
2022-07-28T11:59:57.971Z,29.65
2022-07-28T12:00:57.901Z,29.55
2022-07-28T12:01:57.895Z,29.58
2022-07-28T12:02:57.769Z,29.55
2022-07-28T12:03:57.708Z,29.60
2022-07-28T12:04:57.701Z,29.50
2022-07-28T12:05:57.568Z,29.51
2022-07-28T12:06:57.505Z,29.58
2022-07-28T12:07:57.439Z,29.50
2022-07-28T12:08:57.370Z,29.32
2022-07-28T12:09:57.304Z,29.28
2022-07-28T12:10:57.318Z,29.26
2022-07-28T12:11:57.170Z,29.51
2022-07-28T12:12:57.126Z,29.73
2022-07-28T12:13:57.035Z,29.87
2022-07-28T12:14:56.970Z,30.22
2022-07-28T12:15:56.903Z,30.43
2022-07-28T12:16:56.894Z,30.59
2022-07-28T12:17:56.772Z,30.52
2022-07-28T12:18:56.716Z,30.43
2022-07-28T12:19:56.643Z,30.48
2022-07-28T12:20:58.567Z,30.39
2022-07-28T12:21:56.502Z,30.36
2022-07-28T12:22:56.459Z,30.33
2022-07-28T12:23:56.371Z,30.36
2022-07-28T12:24:56.300Z,30.43
2022-07-28T12:25:56.247Z,30.34
2022-07-28T12:26:56.169Z,30.49
2022-07-28T12:27:56.110Z,30.32
2022-07-28T12:28:56.045Z,30.24
2022-07-28T12:29:55.974Z,30.17
2022-07-28T12:30:55.906Z,30.12
2022-07-28T12:31:56.083Z,29.77
2022-07-28T12:32:55.771Z,29.58
2022-07-28T12:33:55.709Z,29.46
2022-07-28T12:34:55.641Z,29.22
2022-07-28T12:35:55.575Z,29.21
2022-07-28T12:36:55.503Z,29.03
2022-07-28T12:37:55.445Z,29.00
2022-07-28T12:38:55.375Z,28.96
2022-07-28T12:39:55.309Z,28.94
2022-07-28T12:40:55.239Z,28.96
2022-07-28T12:41:55.175Z,29.01
2022-07-28T12:42:55.110Z,29.09
2022-07-28T12:43:55.044Z,29.07
2022-07-28T12:44:54.978Z,29.22
2022-07-28T12:45:55.000Z,29.28
2022-07-28T12:46:54.840Z,29.18
2022-07-28T12:47:54.778Z,29.21
2022-07-28T12:48:54.732Z,29.16
2022-07-28T12:49:58.532Z,29.13
2022-07-28T12:50:54.580Z,29.18
2022-07-28T12:51:54.507Z,29.11